createdAt,value
2023-03-28T00:01:15.053Z,20.63
2023-03-28T00:03:43.897Z,20.60
2023-03-28T00:06:17.461Z,20.62
2023-03-28T00:08:48.332Z,20.59
2023-03-28T00:11:20.733Z,20.64
2023-03-28T00:14:04.458Z,20.67
2023-03-28T00:16:36.206Z,20.63
2023-03-28T00:19:08.359Z,20.65
2023-03-28T00:21:41.057Z,20.66
2023-03-28T00:24:15.918Z,20.67
2023-03-28T00:26:46.467Z,20.65
2023-03-28T00:29:17.579Z,20.65
2023-03-28T00:31:46.774Z,20.54
2023-03-28T00:34:15.589Z,20.51
2023-03-28T00:36:44.513Z,20.55
2023-03-28T00:39:14.399Z,20.58
2023-03-28T00:41:45.537Z,20.58
2023-03-28T00:44:42.787Z,20.68
2023-03-28T00:47:14.428Z,20.65
2023-03-28T00:49:47.864Z,20.64
2023-03-28T00:52:19.535Z,20.67
2023-03-28T00:54:49.251Z,20.64
2023-03-28T00:57:19.860Z,20.64
2023-03-28T00:59:48.780Z,20.65
2023-03-28T01:02:17.835Z,20.65
2023-03-28T01:04:56.114Z,20.71
2023-03-28T01:07:31.014Z,20.68
2023-03-28T01:10:00.579Z,20.69
2023-03-28T01:12:29.470Z,20.73
2023-03-28T01:14:59.223Z,20.75
2023-03-28T01:17:37.981Z,20.78
2023-03-28T01:20:15.616Z,20.86
2023-03-28T01:23:21.807Z,20.96
2023-03-28T01:26:12.940Z,21.00
2023-03-28T01:29:00.512Z,21.01
2023-03-28T01:32:08.049Z,21.06
2023-03-28T01:35:23.922Z,21.15
2023-03-28T01:38:46.868Z,21.26
2023-03-28T01:41:28.599Z,21.26
2023-03-28T01:44:36.191Z,21.39
2023-03-28T01:47:42.725Z,21.48
2023-03-28T01:50:14.504Z,21.54
2023-03-28T01:53:07.216Z,21.58
2023-03-28T01:56:10.768Z,21.72
2023-03-28T01:59:13.163Z,21.84
2023-03-28T02:02:19.314Z,21.88
2023-03-28T02:04:49.928Z,21.87
2023-03-28T02:07:25.669Z,22.00
2023-03-28T02:10:26.334Z,22.02
2023-03-28T02:13:09.028Z,22.09
2023-03-28T02:16:04.230Z,22.12
2023-03-28T02:18:58.701Z,22.15
2023-03-28T02:21:59.688Z,22.22
2023-03-28T02:24:35.119Z,22.24
2023-03-28T02:27:14.638Z,22.31
2023-03-28T02:29:55.878Z,22.37
2023-03-28T02:32:36.784Z,22.49
2023-03-28T02:35:08.150Z,22.48
2023-03-28T02:37:58.128Z,22.59
2023-03-28T02:40:32.985Z,22.72
2023-03-28T02:43:38.581Z,22.79
2023-03-28T02:46:25.610Z,22.77
2023-03-28T02:49:18.892Z,22.82
2023-03-28T02:51:59.496Z,22.92
2023-03-28T02:54:37.877Z,22.85
2023-03-28T02:57:40.116Z,23.01
2023-03-28T03:00:17.476Z,23.18
2023-03-28T03:02:51.482Z,23.22
2023-03-28T03:05:22.449Z,23.30
2023-03-28T03:07:52.591Z,23.26
2023-03-28T03:10:22.929Z,23.29
2023-03-28T03:12:52.785Z,23.42
2023-03-28T03:15:21.850Z,23.39
2023-03-28T03:17:55.024Z,23.54
2023-03-28T03:20:34.237Z,23.64
2023-03-28T03:23:05.066Z,23.79
2023-03-28T03:25:36.867Z,23.68
2023-03-28T03:28:21.338Z,23.81
2023-03-28T03:30:54.282Z,23.84
2023-03-28T03:33:43.182Z,24.03
2023-03-28T03:36:14.285Z,24.04
2023-03-28T03:38:43.377Z,24.15
2023-03-28T03:41:17.345Z,24.28
2023-03-28T03:43:47.334Z,24.29
2023-03-28T03:46:16.455Z,24.36
2023-03-28T03:48:49.370Z,24.53
2023-03-28T03:51:20.038Z,24.65
2023-03-28T03:53:52.646Z,24.74
2023-03-28T03:56:27.005Z,24.82
2023-03-28T03:59:00.805Z,24.81
2023-03-28T04:01:33.092Z,24.87
2023-03-28T04:04:28.995Z,24.94
2023-03-28T04:07:21.388Z,25.09
2023-03-28T04:09:53.343Z,25.14
2023-03-28T04:12:22.792Z,25.27
2023-03-28T04:14:53.392Z,25.40
2023-03-28T04:17:45.301Z,25.52
2023-03-28T04:20:18.967Z,25.58
2023-03-28T04:23:02.231Z,25.63
2023-03-28T04:25:33.091Z,25.63
2023-03-28T04:28:06.776Z,25.57
2023-03-28T04:30:39.802Z,25.69
2023-03-28T04:33:28.439Z,25.90
2023-03-28T04:36:03.864Z,25.98
2023-03-28T04:38:38.240Z,26.19
2023-03-28T04:41:23.711Z,26.26
2023-03-28T04:44:04.238Z,26.06
2023-03-28T04:46:39.785Z,25.98
2023-03-28T04:49:15.091Z,26.39
2023-03-28T04:51:44.212Z,26.66
2023-03-28T04:54:13.103Z,26.66
2023-03-28T04:57:03.384Z,26.77
2023-03-28T04:59:43.523Z,26.97
2023-03-28T05:02:18.470Z,27.13
2023-03-28T05:05:01.439Z,27.15
2023-03-28T05:07:30.560Z,27.41
2023-03-28T05:09:59.327Z,27.49
2023-03-28T05:12:35.404Z,27.48
2023-03-28T05:15:07.373Z,27.42
2023-03-28T05:17:48.860Z,27.14
2023-03-28T05:20:28.882Z,27.43
2023-03-28T05:22:59.418Z,27.38
2023-03-28T05:25:29.844Z,27.57
2023-03-28T05:27:58.787Z,27.48
2023-03-28T05:30:27.775Z,27.75
2023-03-28T05:32:59.299Z,27.78
2023-03-28T05:35:29.504Z,27.48
2023-03-28T05:37:59.168Z,27.77
2023-03-28T05:40:28.626Z,27.60
2023-03-28T05:42:57.383Z,27.73
2023-03-28T05:45:26.559Z,27.39
2023-03-28T05:48:08.400Z,27.61
2023-03-28T05:50:38.336Z,27.84
2023-03-28T05:53:07.758Z,27.79
2023-03-28T05:55:36.726Z,27.86
2023-03-28T05:58:07.272Z,28.13
2023-03-28T06:00:43.785Z,28.27
2023-03-28T06:03:16.788Z,28.41
2023-03-28T06:05:48.439Z,28.42
2023-03-28T06:08:21.520Z,28.39
2023-03-28T06:10:50.700Z,28.32
2023-03-28T06:13:23.378Z,28.51
2023-03-28T06:15:53.102Z,28.38
2023-03-28T06:18:30.525Z,28.52
2023-03-28T06:20:59.880Z,28.44
2023-03-28T06:23:28.763Z,28.60
2023-03-28T06:25:58.365Z,28.56
2023-03-28T06:28:33.759Z,28.64
2023-03-28T06:31:15.999Z,28.70
2023-03-28T06:33:46.096Z,28.80
2023-03-28T06:36:15.147Z,28.70
2023-03-28T06:38:44.323Z,28.88
2023-03-28T06:41:14.180Z,28.77
2023-03-28T06:43:43.265Z,29.01
2023-03-28T06:46:32.182Z,29.10
2023-03-28T06:49:01.902Z,29.21
2023-03-28T06:51:49.053Z,28.76
2023-03-28T06:54:18.100Z,29.07
2023-03-28T06:56:47.140Z,29.34
2023-03-28T06:59:16.298Z,29.26
2023-03-28T07:01:47.688Z,29.24
2023-03-28T07:04:19.337Z,29.16
2023-03-28T07:06:48.860Z,29.34
2023-03-28T07:09:17.696Z,29.26
2023-03-28T07:11:56.257Z,29.11
2023-03-28T07:14:25.578Z,28.93
2023-03-28T07:16:54.518Z,29.14
2023-03-28T07:19:23.892Z,29.41
2023-03-28T07:21:54.330Z,29.45
2023-03-28T07:24:25.118Z,29.48
2023-03-28T07:27:45.764Z,29.50
2023-03-28T07:30:17.018Z,29.20
2023-03-28T07:32:55.725Z,29.58
2023-03-28T07:35:31.118Z,29.59
2023-03-28T07:42:03.597Z,29.37
2023-03-28T07:44:32.596Z,29.63
2023-03-28T07:47:02.765Z,29.72
2023-03-28T07:49:32.034Z,29.45
2023-03-28T07:52:01.974Z,29.66
2023-03-28T07:54:34.129Z,29.54
2023-03-28T07:57:03.115Z,29.87
2023-03-28T07:59:52.551Z,29.61
2023-03-28T08:02:21.781Z,29.50
2023-03-28T08:04:51.063Z,29.44
2023-03-28T08:07:26.605Z,29.63
2023-03-28T08:09:58.400Z,29.87
2023-03-28T08:12:31.299Z,30.02
2023-03-28T08:15:00.911Z,30.08
2023-03-28T08:17:31.840Z,30.07
2023-03-28T08:20:01.123Z,30.15
2023-03-28T08:22:29.887Z,30.05
2023-03-28T08:25:18.926Z,30.12
2023-03-28T08:27:48.864Z,30.09
2023-03-28T08:30:17.956Z,29.47
2023-03-28T08:32:55.281Z,29.72
2023-03-28T08:35:24.533Z,30.19
2023-03-28T08:37:56.863Z,30.25
2023-03-28T08:40:29.209Z,30.32
2023-03-28T08:43:24.212Z,30.24
2023-03-28T08:45:57.024Z,30.23
2023-03-28T08:48:41.586Z,30.31
2023-03-28T08:51:27.129Z,30.20
2023-03-28T08:54:22.825Z,30.22
2023-03-28T08:57:01.633Z,30.38
2023-03-28T08:59:34.677Z,30.32
2023-03-28T09:02:04.995Z,30.38
2023-03-28T09:04:36.681Z,30.36
2023-03-28T09:07:32.305Z,30.27
2023-03-28T09:10:14.925Z,30.27
2023-03-28T09:12:59.302Z,30.37
2023-03-28T09:15:46.792Z,30.19
2023-03-28T09:18:39.895Z,30.18
2023-03-28T09:21:32.327Z,30.23
2023-03-28T09:24:05.162Z,30.34
2023-03-28T09:27:35.557Z,30.24
2023-03-28T09:30:20.697Z,30.31
2023-03-28T09:32:54.270Z,30.25
2023-03-28T09:35:25.507Z,30.25
2023-03-28T09:38:01.786Z,30.35
2023-03-28T09:40:36.727Z,30.34
2023-03-28T09:43:37.942Z,30.44
2023-03-28T09:46:44.372Z,30.38
2023-03-28T09:49:50.755Z,30.03
2023-03-28T09:52:25.164Z,30.14
2023-03-28T09:54:54.779Z,30.11
2023-03-28T09:57:24.620Z,30.08
2023-03-28T09:59:59.766Z,29.92
2023-03-28T10:02:42.700Z,29.73
2023-03-28T10:05:32.903Z,30.16
2023-03-28T10:08:26.403Z,29.93
2023-03-28T10:11:18.354Z,30.05
2023-03-28T10:13:52.290Z,29.98
2023-03-28T10:16:31.856Z,30.02
2023-03-28T10:19:15.171Z,30.14
2023-03-28T10:21:57.393Z,29.98
2023-03-28T10:24:30.790Z,29.90
2023-03-28T10:27:26.730Z,30.07
2023-03-28T10:30:09.880Z,30.06
2023-03-28T10:32:39.842Z,30.01
2023-03-28T10:35:27.134Z,29.65
2023-03-28T10:38:06.008Z,29.88
2023-03-28T10:41:10.806Z,29.82
2023-03-28T10:43:59.693Z,29.77
2023-03-28T10:46:44.819Z,29.94
2023-03-28T10:49:21.883Z,29.95
2023-03-28T10:51:59.046Z,29.96
2023-03-28T10:54:41.113Z,29.82
2023-03-28T10:57:59.863Z,29.82
2023-03-28T11:00:43.500Z,29.91
2023-03-28T11:03:49.198Z,29.72
2023-03-28T11:06:35.901Z,29.54
2023-03-28T11:09:26.992Z,29.63
2023-03-28T11:12:54.315Z,29.67
2023-03-28T11:15:47.851Z,29.67
2023-03-28T11:18:50.183Z,29.81
2023-03-28T11:21:50.513Z,29.79
2023-03-28T11:24:42.806Z,29.74
2023-03-28T11:27:36.760Z,29.48
2023-03-28T11:30:21.433Z,29.60
2023-03-28T11:33:38.105Z,29.61
2023-03-28T11:36:23.082Z,29.58
2023-03-28T11:39:14.896Z,29.53
2023-03-28T11:41:47.705Z,29.24
2023-03-28T11:44:57.191Z,29.40
2023-03-28T11:47:36.015Z,29.33
2023-03-28T11:50:22.830Z,29.15
2023-03-28T11:53:13.840Z,29.18
2023-03-28T11:56:15.506Z,29.13
2023-03-28T11:59:58.577Z,29.01
2023-03-28T12:02:32.107Z,29.01
2023-03-28T12:05:20.997Z,29.07
2023-03-28T12:08:08.224Z,29.06
2023-03-28T12:10:41.033Z,28.98
2023-03-28T12:13:45.478Z,28.94
2023-03-28T12:16:50.286Z,29.03
2023-03-28T12:19:41.960Z,28.99
2023-03-28T12:22:33.423Z,28.92
2023-03-28T12:25:30.257Z,28.83
2023-03-28T12:28:46.700Z,28.78
2023-03-28T12:31:32.872Z,28.71
2023-03-28T12:34:40.318Z,28.64
2023-03-28T12:37:49.455Z,28.55
2023-03-28T12:41:01.131Z,28.48
2023-03-28T12:43:52.858Z,28.42
2023-03-28T12:46:38.008Z,28.37
2023-03-28T12:49:15.805Z,28.28
2023-03-28T12:51:51.376Z,28.21
2023-03-28T12:54:29.341Z,28.05
2023-03-28T12:57:09.335Z,28.06
2023-03-28T13:00:14.447Z,28.04
2023-03-28T13:03:09.213Z,27.93
2023-03-28T13:06:04.122Z,27.87
2023-03-28T13:09:09.405Z,27.81
2023-03-28T13:11:50.776Z,27.71
2023-03-28T13:14:42.571Z,27.73
2023-03-28T13:17:40.214Z,27.69
2023-03-28T13:20:18.592Z,27.60
2023-03-28T13:22:59.059Z,27.56
2023-03-28T13:25:33.808Z,27.46
2023-03-28T13:28:32.234Z,27.44
2023-03-28T13:31:21.892Z,27.36
2023-03-28T13:33:59.294Z,27.29
2023-03-28T13:36:37.442Z,27.25
2023-03-28T13:39:10.296Z,27.13
2023-03-28T13:41:48.522Z,27.15
2023-03-28T13:44:46.132Z,27.12
2023-03-28T13:47:24.236Z,27.04
2023-03-28T13:50:01.084Z,27.01
2023-03-28T13:52:30.304Z,26.94
2023-03-28T13:55:03.701Z,26.95
2023-03-28T13:57:32.991Z,26.80
2023-03-28T14:00:06.868Z,26.80
2023-03-28T14:02:49.078Z,26.79
2023-03-28T14:05:28.758Z,26.74
2023-03-28T14:08:20.989Z,26.72
2023-03-28T14:10:52.411Z,26.62
2023-03-28T14:13:26.212Z,26.60
2023-03-28T14:15:56.865Z,26.48
2023-03-28T14:18:41.161Z,26.50
2023-03-28T14:21:11.134Z,26.39
2023-03-28T14:23:43.345Z,26.35
2023-03-28T14:26:19.648Z,26.34
2023-03-28T14:28:48.921Z,26.25
2023-03-28T14:31:38.515Z,26.34
2023-03-28T14:34:27.240Z,26.31
2023-03-28T14:37:01.833Z,26.20
2023-03-28T14:39:33.413Z,26.18
2023-03-28T14:42:09.337Z,26.18
2023-03-28T14:44:43.632Z,26.13
2023-03-28T14:47:30.919Z,26.16
2023-03-28T14:50:02.544Z,26.04
2023-03-28T14:52:41.830Z,26.05
2023-03-28T14:55:18.607Z,26.02
2023-03-28T14:57:55.806Z,25.99
2023-03-28T15:00:34.417Z,25.95
2023-03-28T15:03:06.556Z,25.85
2023-03-28T15:05:37.526Z,25.87
2023-03-28T15:08:07.431Z,25.84
2023-03-28T15:10:37.374Z,25.82
2023-03-28T15:13:35.936Z,25.82
2023-03-28T15:16:09.667Z,25.82
2023-03-28T15:18:47.863Z,25.83
2023-03-28T15:21:17.996Z,25.73
2023-03-28T15:24:16.518Z,25.82
2023-03-28T15:26:52.113Z,25.74
2023-03-28T15:29:23.137Z,25.71
2023-03-28T15:31:57.563Z,25.68
2023-03-28T15:34:30.656Z,25.68
2023-03-28T15:37:06.042Z,25.62
2023-03-28T15:39:38.496Z,25.62
2023-03-28T15:42:23.649Z,25.60
2023-03-28T15:44:58.465Z,25.50
2023-03-28T15:47:31.009Z,25.52
2023-03-28T15:50:08.039Z,25.50
2023-03-28T15:52:37.546Z,25.43
2023-03-28T15:55:07.489Z,25.43
2023-03-28T15:57:37.420Z,25.41
2023-03-28T16:00:07.880Z,25.36
2023-03-28T16:02:41.815Z,25.34
2023-03-28T16:05:17.244Z,25.36
2023-03-28T16:07:49.470Z,25.28
2023-03-28T16:10:22.754Z,25.31
2023-03-28T16:13:24.394Z,25.20
2023-03-28T16:16:25.187Z,25.28
2023-03-28T16:19:26.909Z,25.25
2023-03-28T16:21:57.895Z,25.12
2023-03-28T16:24:28.245Z,25.12
2023-03-28T16:26:57.224Z,25.10
2023-03-28T16:29:26.498Z,25.09
2023-03-28T16:31:55.535Z,25.04
2023-03-28T16:34:24.497Z,25.05
2023-03-28T16:36:53.361Z,25.00
2023-03-28T16:39:22.422Z,24.99
2023-03-28T16:41:51.571Z,24.96
2023-03-28T16:44:20.706Z,24.96
2023-03-28T16:46:51.978Z,24.94
2023-03-28T16:49:20.942Z,24.93
2023-03-28T16:51:49.788Z,24.90
2023-03-28T16:54:19.201Z,24.87
2023-03-28T16:56:48.614Z,24.83
2023-03-28T16:59:18.034Z,24.79
2023-03-28T17:01:48.772Z,24.78
2023-03-28T17:04:17.871Z,24.77
2023-03-28T17:06:46.800Z,24.77
2023-03-28T17:09:15.826Z,24.76
2023-03-28T17:11:44.715Z,24.71
2023-03-28T17:14:13.790Z,24.69
2023-03-28T17:16:42.961Z,24.66
2023-03-28T17:19:12.010Z,24.63
2023-03-28T17:21:43.105Z,24.57
2023-03-28T17:24:12.696Z,24.47
2023-03-28T17:26:41.512Z,24.48
2023-03-28T17:29:12.883Z,24.45
2023-03-28T17:31:42.096Z,24.47
2023-03-28T17:34:12.142Z,24.49
2023-03-28T17:36:42.495Z,24.47
2023-03-28T17:39:12.656Z,24.45
2023-03-28T17:41:42.730Z,24.45
2023-03-28T17:44:12.000Z,24.48
2023-03-28T17:46:41.248Z,24.44
2023-03-28T17:49:10.358Z,24.45
2023-03-28T17:51:40.222Z,24.41
2023-03-28T17:54:12.841Z,24.35
2023-03-28T17:56:42.567Z,24.30
2023-03-28T17:59:12.837Z,24.31
2023-03-28T18:01:42.064Z,24.32
2023-03-28T18:04:10.947Z,24.30
2023-03-28T18:06:41.533Z,24.28
2023-03-28T18:09:10.808Z,24.25
2023-03-28T18:11:40.233Z,24.23
2023-03-28T18:14:09.712Z,24.23
2023-03-28T18:16:39.755Z,24.21
2023-03-28T18:19:13.371Z,24.18
2023-03-28T18:21:42.621Z,24.12
2023-03-28T18:24:11.479Z,24.09
2023-03-28T18:26:40.602Z,24.04
2023-03-28T18:29:09.672Z,24.03
2023-03-28T18:31:39.895Z,23.98
2023-03-28T18:34:09.095Z,23.95
2023-03-28T18:36:44.793Z,23.91
2023-03-28T18:39:14.534Z,23.84
2023-03-28T18:41:43.313Z,23.77
2023-03-28T18:44:12.415Z,23.77
2023-03-28T18:46:41.222Z,23.73
2023-03-28T18:49:10.184Z,23.67
2023-03-28T18:51:39.373Z,23.66
2023-03-28T18:54:08.418Z,23.65
2023-03-28T18:56:37.226Z,23.61
2023-03-28T18:59:06.978Z,23.57
2023-03-28T19:01:36.721Z,23.55
2023-03-28T19:04:05.722Z,23.55
2023-03-28T19:06:37.675Z,23.55
2023-03-28T19:09:07.214Z,23.52
2023-03-28T19:11:36.295Z,23.54
2023-03-28T19:14:05.612Z,23.53
2023-03-28T19:16:34.478Z,23.50
2023-03-28T19:19:03.604Z,23.48
2023-03-28T19:21:32.508Z,23.46
2023-03-28T19:24:01.858Z,23.44
2023-03-28T19:26:30.865Z,23.41
2023-03-28T19:29:02.745Z,23.42
2023-03-28T19:31:32.231Z,23.40
2023-03-28T19:34:01.206Z,23.39
2023-03-28T19:36:30.355Z,23.40
2023-03-28T19:38:59.168Z,23.39
2023-03-28T19:41:28.339Z,23.41
2023-03-28T19:43:57.284Z,23.41
2023-03-28T19:46:48.958Z,23.42
2023-03-28T19:49:18.328Z,23.36
2023-03-28T19:51:47.070Z,23.31
2023-03-28T19:54:16.155Z,23.32
2023-03-28T19:56:45.926Z,23.26
2023-03-28T19:59:15.189Z,23.25
2023-03-28T20:01:44.381Z,23.27
2023-03-28T20:04:13.984Z,23.24
2023-03-28T20:06:43.198Z,23.26
2023-03-28T20:09:12.554Z,23.26
2023-03-28T20:11:43.100Z,23.24
2023-03-28T20:14:12.602Z,23.23
2023-03-28T20:16:41.856Z,23.22
2023-03-28T20:19:11.919Z,23.19
2023-03-28T20:21:42.049Z,23.17
2023-03-28T20:24:12.680Z,23.14
2023-03-28T20:26:42.836Z,23.11
2023-03-28T20:29:15.326Z,23.11
2023-03-28T20:31:45.595Z,23.06
2023-03-28T20:34:15.876Z,23.06
2023-03-28T20:36:47.845Z,23.07
2023-03-28T20:39:18.363Z,23.07
2023-03-28T20:41:50.135Z,23.06
2023-03-28T20:44:21.652Z,23.02
2023-03-28T20:46:51.886Z,22.99
2023-03-28T20:49:22.961Z,22.98
2023-03-28T20:51:53.731Z,22.94
2023-03-28T20:54:26.144Z,22.94
2023-03-28T20:56:57.197Z,22.95
2023-03-28T20:59:28.868Z,22.90
2023-03-28T21:01:59.358Z,22.83
2023-03-28T21:04:29.515Z,22.84
2023-03-28T21:06:59.407Z,22.88
2023-03-28T21:09:30.165Z,22.84
2023-03-28T21:12:00.170Z,22.81
2023-03-28T21:14:30.824Z,22.77
2023-03-28T21:17:01.287Z,22.73
2023-03-28T21:19:31.609Z,22.68
2023-03-28T21:22:02.426Z,22.69
2023-03-28T21:24:32.761Z,22.71
2023-03-28T21:27:03.076Z,22.69
2023-03-28T21:29:33.549Z,22.67
2023-03-28T21:32:03.802Z,22.66
2023-03-28T21:34:36.879Z,22.67
2023-03-28T21:37:07.589Z,22.67
2023-03-28T21:39:37.998Z,22.64
2023-03-28T21:42:08.909Z,22.64
2023-03-28T21:44:39.744Z,22.60
2023-03-28T21:47:09.622Z,22.60
2023-03-28T21:49:39.759Z,22.60
2023-03-28T21:52:09.693Z,22.57
2023-03-28T21:54:39.723Z,22.56
2023-03-28T21:57:10.110Z,22.54
2023-03-28T21:59:41.321Z,22.50
2023-03-28T22:02:11.810Z,22.45
2023-03-28T22:04:42.589Z,22.43
2023-03-28T22:07:12.951Z,22.43
2023-03-28T22:09:43.746Z,22.47
2023-03-28T22:12:16.346Z,22.45
2023-03-28T22:14:45.999Z,22.56
2023-03-28T22:17:15.953Z,22.44
2023-03-28T22:19:46.018Z,22.44
2023-03-28T22:22:19.223Z,22.39
2023-03-28T22:24:49.442Z,22.37
2023-03-28T22:27:19.253Z,22.37
2023-03-28T22:29:49.489Z,22.37
2023-03-28T22:32:19.473Z,22.35
2023-03-28T22:34:49.701Z,22.30
2023-03-28T22:37:20.432Z,22.31
2023-03-28T22:39:50.728Z,22.25
2023-03-28T22:42:20.954Z,22.27
2023-03-28T22:44:51.369Z,22.26
2023-03-28T22:47:21.462Z,22.26
2023-03-28T22:49:55.197Z,22.26
2023-03-28T22:52:27.485Z,22.23
2023-03-28T22:54:57.957Z,22.21
2023-03-28T22:57:28.491Z,22.20
2023-03-28T22:59:59.377Z,22.15
2023-03-28T23:02:30.432Z,22.17
2023-03-28T23:05:00.292Z,22.17
2023-03-28T23:07:30.476Z,22.16
2023-03-28T23:10:00.607Z,22.15
2023-03-28T23:12:30.957Z,22.07
2023-03-28T23:15:01.026Z,22.03
2023-03-28T23:17:30.192Z,22.01
2023-03-28T23:19:59.414Z,22.00
2023-03-28T23:22:28.432Z,22.00
2023-03-28T23:24:57.513Z,21.98
2023-03-28T23:27:26.443Z,22.01
2023-03-28T23:29:55.583Z,22.04
2023-03-28T23:32:24.455Z,22.04
2023-03-28T23:34:54.624Z,22.03
2023-03-28T23:37:27.062Z,22.06
2023-03-28T23:39:57.205Z,22.06
2023-03-28T23:42:26.575Z,22.02
2023-03-28T23:44:55.432Z,22.06
2023-03-28T23:47:24.756Z,22.03
2023-03-28T23:49:53.560Z,22.06
2023-03-28T23:52:22.918Z,22.10
2023-03-28T23:54:51.728Z,22.05
2023-03-28T23:57:20.897Z,22.02
2023-03-28T23:59:49.814Z,22.00
